createdAt,value
2023-05-19T00:01:57.300Z,1.70
2023-05-19T00:04:26.986Z,1.52
2023-05-19T00:10:01.566Z,1.65
2023-05-19T00:12:30.433Z,2.30
2023-05-19T00:15:17.132Z,1.60
2023-05-19T00:17:46.972Z,1.80
2023-05-19T00:20:16.048Z,1.42
2023-05-19T00:22:58.163Z,1.87
2023-05-19T00:28:55.107Z,1.70
2023-05-19T00:31:23.503Z,1.73
2023-05-19T00:34:11.057Z,1.92
2023-05-19T00:37:02.012Z,1.70
2023-05-19T00:42:57.980Z,1.52
2023-05-19T00:49:06.704Z,1.37
2023-05-19T00:51:43.027Z,1.92
2023-05-19T00:54:35.209Z,1.42
2023-05-19T00:57:04.312Z,1.73
2023-05-19T00:59:32.453Z,1.92
2023-05-19T01:02:02.909Z,1.70
2023-05-19T01:04:35.235Z,1.65
2023-05-19T01:07:53.505Z,1.45
2023-05-19T01:10:23.814Z,1.67
2023-05-19T01:12:52.021Z,1.90
2023-05-19T01:15:34.844Z,1.83
2023-05-19T01:18:18.443Z,1.60
2023-05-19T01:20:53.185Z,1.73
2023-05-19T01:23:40.134Z,1.42
2023-05-19T01:26:26.026Z,1.48
2023-05-19T01:29:08.793Z,1.33
2023-05-19T01:32:21.125Z,1.62
2023-05-19T01:34:51.951Z,1.27
2023-05-19T01:43:34.544Z,1.80
2023-05-19T01:46:24.243Z,1.70
2023-05-19T01:51:59.580Z,1.75
2023-05-19T01:54:28.247Z,1.55
2023-05-19T01:57:04.799Z,1.35
2023-05-19T01:59:46.010Z,1.65
2023-05-19T02:06:42.208Z,1.52
2023-05-19T02:09:56.235Z,1.55
2023-05-19T02:12:33.886Z,2.00
2023-05-19T02:15:07.031Z,1.75
2023-05-19T02:17:40.232Z,1.30
2023-05-19T02:20:09.717Z,1.27
2023-05-19T02:22:49.107Z,1.73
2023-05-19T02:26:19.113Z,1.85
2023-05-19T02:28:49.121Z,0.98
2023-05-19T02:31:17.136Z,1.50
2023-05-19T02:34:22.065Z,1.25
2023-05-19T02:37:11.193Z,1.50
2023-05-19T02:39:39.211Z,1.40
2023-05-19T02:42:08.975Z,1.75
2023-05-19T02:44:55.456Z,1.33
2023-05-19T02:51:15.240Z,1.50
2023-05-19T02:54:00.876Z,1.73
2023-05-19T02:56:29.218Z,1.30
2023-05-19T02:58:59.172Z,1.42
2023-05-19T03:01:43.250Z,1.80
2023-05-19T03:06:57.632Z,1.67
2023-05-19T03:09:26.319Z,1.12
2023-05-19T03:12:16.830Z,1.52
2023-05-19T03:14:46.554Z,1.67
2023-05-19T03:17:34.219Z,1.20
2023-05-19T03:20:18.963Z,1.60
2023-05-19T03:22:47.121Z,1.52
2023-05-19T03:25:15.798Z,1.58
2023-05-19T03:27:44.263Z,1.50
2023-05-19T03:30:15.364Z,1.55
2023-05-19T03:32:45.379Z,1.25
2023-05-19T03:35:13.596Z,1.10
2023-05-19T03:41:21.289Z,1.20
2023-05-19T03:43:49.298Z,1.60
2023-05-19T03:46:37.419Z,1.75
2023-05-19T03:49:07.575Z,1.60
2023-05-19T03:54:33.062Z,1.08
2023-05-19T03:57:02.165Z,1.40
2023-05-19T04:03:26.115Z,1.20
2023-05-19T04:09:12.911Z,1.87
2023-05-19T04:11:41.765Z,1.75
2023-05-19T04:14:10.306Z,1.62
2023-05-19T04:16:38.780Z,1.15
2023-05-19T04:19:11.358Z,1.42
2023-05-19T04:21:40.771Z,1.42
2023-05-19T04:24:38.423Z,1.55
2023-05-19T04:27:12.008Z,1.37
2023-05-19T04:29:40.958Z,1.27
2023-05-19T04:32:10.757Z,1.40
2023-05-19T04:34:40.415Z,1.30
2023-05-19T04:37:52.267Z,1.48
2023-05-19T04:40:31.236Z,1.23
2023-05-19T04:43:01.988Z,1.17
2023-05-19T04:45:37.757Z,1.45
2023-05-19T04:48:06.755Z,1.60
2023-05-19T04:50:44.414Z,1.50
2023-05-19T04:59:37.119Z,1.98
2023-05-19T05:02:41.454Z,1.20
2023-05-19T05:05:10.635Z,1.10
2023-05-19T05:08:05.683Z,1.50
2023-05-19T05:10:40.227Z,1.05
2023-05-19T05:13:10.578Z,1.55
2023-05-19T05:15:40.628Z,1.10
2023-05-19T05:18:27.295Z,1.35
2023-05-19T05:23:37.372Z,1.12
2023-05-19T05:26:11.843Z,1.62
2023-05-19T05:28:43.306Z,1.27
2023-05-19T05:31:17.089Z,1.52
2023-05-19T05:33:46.275Z,1.48
2023-05-19T05:36:15.098Z,1.42
2023-05-19T05:42:13.902Z,1.83
2023-05-19T05:44:42.490Z,1.50
2023-05-19T05:47:12.025Z,1.10
2023-05-19T05:49:48.764Z,1.45
2023-05-19T05:52:21.596Z,1.62
2023-05-19T05:55:01.705Z,1.10
2023-05-19T05:57:35.353Z,1.10
2023-05-19T06:00:17.560Z,1.12
2023-05-19T06:03:12.404Z,1.20
2023-05-19T06:06:15.914Z,1.20
2023-05-19T06:08:44.355Z,1.30
2023-05-19T06:11:12.882Z,1.25
2023-05-19T06:13:42.677Z,1.15
2023-05-19T06:18:56.974Z,1.20
2023-05-19T06:21:25.634Z,1.08
2023-05-19T06:24:01.978Z,1.33
2023-05-19T06:29:57.959Z,1.20
2023-05-19T06:32:26.675Z,1.33
2023-05-19T06:34:56.499Z,1.10
2023-05-19T06:37:25.098Z,1.27
2023-05-19T06:43:02.850Z,1.08
2023-05-19T06:46:02.210Z,1.20
2023-05-19T06:48:34.564Z,1.50
2023-05-19T06:51:06.869Z,1.30
2023-05-19T06:53:35.867Z,1.10
2023-05-19T06:56:05.259Z,1.50
2023-05-19T06:58:33.777Z,1.37
2023-05-19T07:01:21.265Z,1.00
2023-05-19T07:03:50.303Z,1.50
2023-05-19T07:06:50.729Z,1.55
2023-05-19T07:09:20.878Z,1.42
2023-05-19T07:11:49.544Z,1.37
2023-05-19T07:17:27.073Z,1.25
2023-05-19T07:22:41.649Z,0.82
2023-05-19T07:25:10.901Z,1.30
2023-05-19T07:27:40.075Z,1.42
2023-05-19T07:30:20.635Z,1.00
2023-05-19T07:32:50.662Z,0.98
2023-05-19T07:35:18.915Z,0.82
2023-05-19T07:37:47.779Z,1.20
2023-05-19T07:40:16.373Z,0.77
2023-05-19T07:42:44.811Z,0.90
2023-05-19T07:47:54.905Z,1.20
2023-05-19T07:50:30.678Z,1.45
2023-05-19T07:53:28.354Z,1.02
2023-05-19T07:55:58.825Z,0.93
2023-05-19T07:58:27.620Z,0.90
2023-05-19T08:00:58.227Z,0.68
2023-05-19T08:04:00.397Z,0.95
2023-05-19T08:06:31.764Z,0.88
2023-05-19T08:09:00.325Z,0.80
2023-05-19T08:11:28.535Z,0.68
2023-05-19T08:13:56.553Z,0.73
2023-05-19T08:16:28.241Z,0.98
2023-05-19T08:18:58.188Z,0.77
2023-05-19T08:21:26.655Z,0.85
2023-05-19T08:23:54.758Z,0.75
2023-05-19T08:26:26.267Z,0.88
2023-05-19T08:28:55.693Z,1.00
2023-05-19T08:31:24.960Z,0.68
2023-05-19T08:33:53.639Z,1.00
2023-05-19T08:36:23.580Z,0.70
2023-05-19T08:38:53.095Z,1.10
2023-05-19T08:41:21.612Z,0.80
2023-05-19T08:43:50.121Z,0.70
2023-05-19T08:49:14.154Z,0.90
2023-05-19T08:51:55.665Z,0.90
2023-05-19T08:54:27.600Z,0.70
2023-05-19T08:56:57.407Z,0.80
2023-05-19T08:59:26.541Z,0.65
2023-05-19T09:01:56.558Z,0.80
2023-05-19T09:04:29.976Z,0.52
2023-05-19T09:07:03.997Z,0.60
2023-05-19T09:09:32.279Z,0.30
2023-05-19T09:12:00.985Z,0.57
2023-05-19T09:14:29.739Z,0.68
2023-05-19T09:16:57.991Z,0.68
2023-05-19T09:19:29.999Z,0.70
2023-05-19T09:22:04.773Z,0.90
2023-05-19T09:24:47.008Z,0.73
2023-05-19T09:27:22.357Z,0.80
2023-05-19T09:29:52.206Z,0.80
2023-05-19T09:32:26.670Z,0.62
2023-05-19T09:34:55.869Z,0.60
2023-05-19T09:37:25.858Z,0.70
2023-05-19T09:39:54.568Z,0.73
2023-05-19T09:42:27.173Z,0.88
2023-05-19T09:45:01.493Z,0.70
2023-05-19T09:47:34.693Z,0.80
2023-05-19T09:50:03.900Z,0.52
2023-05-19T09:52:36.734Z,1.00
2023-05-19T09:55:06.262Z,0.70
2023-05-19T09:57:37.085Z,0.88
2023-05-19T10:00:21.083Z,0.65
2023-05-19T10:03:07.968Z,0.80
2023-05-19T10:05:55.054Z,0.82
2023-05-19T10:09:04.412Z,0.88
2023-05-19T10:12:19.537Z,0.70
2023-05-19T10:18:37.465Z,0.60
2023-05-19T10:21:08.822Z,0.55
2023-05-19T10:27:51.262Z,0.60
2023-05-19T10:30:23.836Z,0.73
2023-05-19T10:32:52.275Z,0.60
2023-05-19T10:35:42.069Z,0.62
2023-05-19T10:38:52.422Z,0.70
2023-05-19T10:41:28.493Z,0.82
2023-05-19T10:51:12.220Z,0.90
2023-05-19T10:53:46.423Z,0.60
2023-05-19T10:56:33.893Z,0.50
2023-05-19T10:59:29.083Z,0.47
2023-05-19T11:01:57.957Z,0.60
2023-05-19T11:04:48.899Z,0.70
2023-05-19T11:07:22.428Z,0.75
2023-05-19T11:10:04.209Z,0.80
2023-05-19T11:12:52.212Z,0.80
2023-05-19T11:15:27.568Z,0.70
2023-05-19T11:17:56.314Z,0.75
2023-05-19T11:20:25.971Z,0.62
2023-05-19T11:23:09.473Z,0.62
2023-05-19T11:25:45.903Z,0.90
2023-05-19T11:28:58.081Z,0.70
2023-05-19T11:31:47.118Z,0.88
2023-05-19T11:34:15.588Z,0.65
2023-05-19T11:36:46.103Z,0.77
2023-05-19T11:39:15.966Z,0.70
2023-05-19T11:41:44.758Z,0.80
2023-05-19T11:44:12.837Z,0.90
2023-05-19T11:46:40.934Z,0.70
2023-05-19T11:49:10.511Z,0.75
2023-05-19T11:51:41.336Z,0.90
2023-05-19T11:56:58.270Z,0.98
2023-05-19T11:59:34.055Z,0.75
2023-05-19T12:02:04.833Z,1.00
2023-05-19T12:04:33.372Z,1.00
2023-05-19T12:07:01.504Z,1.10
2023-05-19T12:09:29.873Z,1.00
2023-05-19T12:11:59.791Z,0.80
2023-05-19T12:17:39.922Z,1.08
2023-05-19T12:20:10.698Z,0.98
2023-05-19T12:22:39.201Z,1.20
2023-05-19T12:25:07.707Z,0.60
2023-05-19T12:27:38.729Z,1.35
2023-05-19T12:30:08.459Z,0.80
2023-05-19T12:32:37.435Z,0.80
2023-05-19T12:35:07.084Z,0.80
2023-05-19T12:37:36.285Z,0.80
2023-05-19T12:40:05.666Z,0.88
2023-05-19T12:42:35.476Z,1.10
2023-05-19T12:45:06.091Z,0.80
2023-05-19T12:47:36.306Z,0.75
2023-05-19T12:50:06.235Z,1.00
2023-05-19T12:52:48.245Z,0.98
2023-05-19T12:55:17.350Z,0.80
2023-05-19T12:57:50.546Z,0.80
2023-05-19T13:00:22.825Z,0.80
2023-05-19T13:03:00.899Z,0.88
2023-05-19T13:05:46.634Z,0.90
2023-05-19T13:08:16.965Z,0.90
2023-05-19T13:10:59.813Z,0.98
2023-05-19T13:13:47.309Z,0.73
2023-05-19T13:16:35.927Z,0.90
2023-05-19T13:21:52.171Z,0.70
2023-05-19T13:31:17.870Z,0.90
2023-05-19T13:34:09.034Z,0.98
2023-05-19T13:37:18.560Z,0.90
2023-05-19T13:40:05.472Z,1.02
2023-05-19T13:42:33.898Z,0.73
2023-05-19T13:45:02.598Z,0.80
2023-05-19T13:47:31.531Z,0.88
2023-05-19T13:50:01.571Z,0.88
2023-05-19T13:52:30.497Z,1.20
2023-05-19T13:54:58.634Z,1.02
2023-05-19T13:57:53.705Z,0.80
2023-05-19T14:00:22.279Z,1.12
2023-05-19T14:02:50.591Z,0.70
2023-05-19T14:05:20.406Z,1.10
2023-05-19T14:08:29.867Z,1.00
2023-05-19T14:11:15.291Z,1.05
2023-05-19T14:13:43.450Z,0.90
2023-05-19T14:23:53.118Z,1.08
2023-05-19T14:26:21.954Z,0.90
2023-05-19T14:29:07.377Z,0.80
2023-05-19T14:32:16.771Z,0.90
2023-05-19T14:34:44.823Z,1.12
2023-05-19T14:37:13.231Z,0.90
2023-05-19T14:39:58.175Z,1.10
2023-05-19T14:46:16.334Z,0.85
2023-05-19T14:48:48.070Z,0.95
2023-05-19T14:51:16.363Z,1.10
2023-05-19T14:53:44.815Z,0.95
2023-05-19T14:56:12.914Z,1.00
2023-05-19T14:58:41.205Z,0.90
2023-05-19T15:01:09.726Z,0.93
2023-05-19T15:03:38.040Z,1.30
2023-05-19T15:06:11.561Z,1.00
2023-05-19T15:08:55.283Z,1.05
2023-05-19T15:11:23.673Z,0.95
2023-05-19T15:13:52.174Z,0.80
2023-05-19T15:16:20.842Z,1.20
2023-05-19T15:18:51.453Z,1.02
2023-05-19T15:21:21.736Z,1.40
2023-05-19T15:23:50.635Z,1.08
2023-05-19T15:26:19.365Z,1.00
2023-05-19T15:29:41.761Z,1.10
2023-05-19T15:32:30.991Z,1.10
2023-05-19T15:34:59.555Z,1.10
2023-05-19T15:37:30.674Z,0.95
2023-05-19T15:39:59.131Z,0.93
2023-05-19T15:42:30.958Z,0.88
2023-05-19T15:44:59.953Z,1.00
2023-05-19T15:47:28.654Z,0.93
2023-05-19T15:49:57.225Z,0.90
2023-05-19T15:52:25.600Z,1.15
2023-05-19T15:54:59.003Z,1.15
2023-05-19T15:57:27.526Z,1.10
2023-05-19T15:59:56.089Z,1.12
2023-05-19T16:02:25.275Z,1.30
2023-05-19T16:04:53.781Z,1.00
2023-05-19T16:07:23.789Z,1.20
2023-05-19T16:09:52.202Z,1.23
2023-05-19T16:12:22.424Z,0.93
2023-05-19T16:14:50.614Z,0.75
2023-05-19T16:17:19.003Z,1.30
2023-05-19T16:19:47.402Z,0.90
2023-05-19T16:22:15.610Z,1.00
2023-05-19T16:25:01.117Z,1.10
2023-05-19T16:27:33.991Z,1.20
2023-05-19T16:30:26.345Z,1.12
2023-05-19T16:32:55.221Z,1.00
2023-05-19T16:35:23.671Z,1.00
2023-05-19T16:37:51.900Z,1.15
2023-05-19T16:40:21.000Z,0.80
2023-05-19T16:42:50.598Z,1.08
2023-05-19T16:45:19.118Z,1.23
2023-05-19T16:47:47.837Z,1.20
2023-05-19T16:51:01.305Z,1.20
2023-05-19T16:53:49.074Z,1.00
2023-05-19T16:56:17.138Z,1.12
2023-05-19T16:58:46.912Z,1.27
2023-05-19T17:04:45.183Z,1.02
2023-05-19T17:10:59.934Z,1.20
2023-05-19T17:13:29.136Z,1.00
2023-05-19T17:16:16.022Z,0.90
2023-05-19T17:19:46.644Z,0.90
2023-05-19T17:22:58.019Z,1.00
2023-05-19T17:25:27.823Z,0.98
2023-05-19T17:27:56.335Z,0.80
2023-05-19T17:30:24.400Z,0.90
2023-05-19T17:32:52.853Z,1.17
2023-05-19T17:35:53.737Z,1.08
2023-05-19T17:38:46.743Z,0.95
2023-05-19T17:41:29.928Z,1.30
2023-05-19T17:43:58.735Z,1.10
2023-05-19T17:46:26.854Z,0.80
2023-05-19T17:52:15.897Z,1.02
2023-05-19T17:54:44.815Z,1.10
2023-05-19T17:57:18.098Z,1.12
2023-05-19T17:59:46.917Z,1.25
2023-05-19T18:02:15.802Z,1.02
2023-05-19T18:04:44.894Z,1.15
2023-05-19T18:07:16.506Z,1.10
2023-05-19T18:09:46.782Z,0.90
2023-05-19T18:12:16.271Z,1.10
2023-05-19T18:15:04.824Z,0.82
2023-05-19T18:17:33.109Z,0.90
2023-05-19T18:20:22.135Z,1.20
2023-05-19T18:25:55.478Z,1.17
2023-05-19T18:28:51.258Z,1.17
2023-05-19T18:31:20.218Z,0.80
2023-05-19T18:33:48.351Z,0.88
2023-05-19T18:36:26.178Z,1.17
2023-05-19T18:38:55.151Z,1.23
2023-05-19T18:41:23.254Z,0.98
2023-05-19T18:43:52.961Z,1.08
2023-05-19T18:46:21.844Z,0.75
2023-05-19T18:48:50.886Z,0.93
2023-05-19T18:51:20.411Z,1.00
2023-05-19T18:53:50.188Z,0.80
2023-05-19T18:56:24.053Z,1.25
2023-05-19T18:59:13.805Z,1.10
2023-05-19T19:05:55.215Z,1.37
2023-05-19T19:09:00.046Z,1.12
2023-05-19T19:11:53.263Z,1.55
2023-05-19T19:14:36.781Z,1.30
2023-05-19T19:17:04.890Z,1.20
2023-05-19T19:19:33.343Z,1.17
2023-05-19T19:22:01.674Z,1.05
2023-05-19T19:24:31.420Z,1.12
2023-05-19T19:26:59.743Z,1.25
2023-05-19T19:29:28.376Z,1.33
2023-05-19T19:31:57.952Z,1.48
2023-05-19T19:34:26.352Z,1.35
2023-05-19T19:37:10.442Z,1.30
2023-05-19T19:39:39.482Z,1.30
2023-05-19T19:42:16.726Z,1.52
2023-05-19T19:47:47.152Z,1.17
2023-05-19T19:50:15.927Z,1.58
2023-05-19T19:52:44.362Z,1.20
2023-05-19T19:58:46.403Z,1.35
2023-05-19T20:04:23.030Z,1.45
2023-05-19T20:16:58.879Z,1.48
2023-05-19T20:19:30.941Z,1.33
2023-05-19T20:22:13.392Z,1.60
2023-05-19T20:24:41.809Z,1.65
2023-05-19T20:27:09.960Z,1.27
2023-05-19T20:29:56.961Z,1.60
2023-05-19T20:35:53.384Z,1.23
2023-05-19T20:39:03.803Z,1.40
2023-05-19T20:45:00.191Z,1.40
2023-05-19T20:47:30.552Z,1.62
2023-05-19T20:53:32.543Z,1.08
2023-05-19T20:56:16.700Z,1.80
2023-05-19T20:58:45.108Z,1.33
2023-05-19T21:01:13.768Z,1.40
2023-05-19T21:03:41.927Z,1.40
2023-05-19T21:06:10.362Z,1.42
2023-05-19T21:08:39.887Z,1.40
2023-05-19T21:11:08.683Z,1.40
2023-05-19T21:13:39.091Z,1.50
2023-05-19T21:16:07.839Z,1.30
2023-05-19T21:18:36.057Z,1.50
2023-05-19T21:21:10.905Z,1.50
2023-05-19T21:23:41.797Z,1.58
2023-05-19T21:26:10.087Z,1.60
2023-05-19T21:28:53.946Z,1.50
2023-05-19T21:31:26.325Z,1.58
2023-05-19T21:36:51.345Z,1.60
2023-05-19T21:39:20.760Z,1.83
2023-05-19T21:41:49.209Z,1.83
2023-05-19T21:44:17.276Z,1.67
2023-05-19T21:46:45.493Z,1.90
2023-05-19T21:49:28.226Z,1.77
2023-05-19T21:51:56.637Z,1.50
2023-05-19T21:54:26.508Z,1.85
2023-05-19T21:56:54.785Z,1.87
2023-05-19T21:59:24.714Z,1.62
2023-05-19T22:01:53.539Z,1.92
2023-05-19T22:04:22.522Z,2.22
2023-05-19T22:06:51.689Z,1.98
2023-05-19T22:09:19.701Z,2.20
2023-05-19T22:11:54.199Z,1.75
2023-05-19T22:14:22.228Z,2.00
2023-05-19T22:17:01.616Z,1.92
2023-05-19T22:19:32.642Z,1.70
2023-05-19T22:22:13.182Z,2.17
2023-05-19T22:24:42.019Z,2.00
2023-05-19T22:27:11.749Z,2.20
2023-05-19T22:29:39.797Z,2.30
2023-05-19T22:32:34.160Z,1.95
2023-05-19T22:35:02.656Z,1.73
2023-05-19T22:37:30.915Z,1.65
2023-05-19T22:40:02.503Z,1.65
2023-05-19T22:42:35.382Z,2.15
2023-05-19T22:45:07.553Z,2.10
2023-05-19T22:47:36.103Z,2.00
2023-05-19T22:50:06.148Z,1.70
2023-05-19T22:52:53.684Z,1.95
2023-05-19T22:58:32.258Z,1.90
2023-05-19T23:04:38.020Z,1.92
2023-05-19T23:07:59.733Z,1.85
2023-05-19T23:10:44.790Z,1.92
2023-05-19T23:13:58.943Z,2.33
2023-05-19T23:16:45.228Z,2.28
2023-05-19T23:22:39.906Z,2.00
2023-05-19T23:25:08.841Z,1.80
2023-05-19T23:27:41.106Z,2.33
2023-05-19T23:34:32.672Z,1.95
2023-05-19T23:37:02.057Z,1.95
2023-05-19T23:39:51.916Z,2.30
2023-05-19T23:42:20.431Z,2.10
2023-05-19T23:44:48.524Z,2.00
2023-05-19T23:50:17.644Z,2.53
2023-05-19T23:52:45.700Z,2.10
2023-05-19T23:55:18.075Z,2.22
2023-05-19T23:58:08.080Z,2.30
